Time;durP1;ratioP1;P1;durP2;ratioP2;P2;SDS_P1;SDS_P2;PMS_P1;PMS_P2;Temp;Humidity;BMP_temperature;BMP_pressure;BME280_temperature;BME280_humidity;BME280_pressure;Samples;Min_cycle;Max_cycle;Signal;HPM_P1;HPM_P2
2024/03/08 00:02:32;;;;;;;31.60;10.20;;;0.90;99.90;;;;;;20869684;28;20071;-43
2024/03/08 00:12:33;;;;;;;21.70;11.40;;;0.80;99.90;;;;;;20880461;28;20071;-41
2024/03/08 00:22:36;;;;;;;22.33;11.73;;;0.80;99.90;;;;;;20878148;28;20189;-41
2024/03/08 00:32:38;;;;;;;21.85;12.10;;;0.80;99.90;;;;;;20881512;28;20479;-42
2024/03/08 00:42:41;;;;;;;22.85;12.25;;;0.80;99.90;;;;;;20875536;28;20178;-42
2024/03/08 00:52:46;;;;;;;33.15;16.20;;;0.80;99.90;;;;;;20858389;28;20182;-41
2024/03/08 01:02:48;;;;;;;28.08;13.93;;;0.80;99.90;;;;;;20855931;28;20162;-45
2024/03/08 01:12:54;;;;;;;28.10;14.63;;;0.90;99.90;;;;;;20871365;28;20440;-42
2024/03/08 01:22:56;;;;;;;40.03;17.27;;;0.90;99.90;;;;;;20873510;28;21421;-41
2024/03/08 01:32:58;;;;;;;29.80;14.85;;;0.80;99.90;;;;;;20857399;28;20157;-41
2024/03/08 01:43:22;;;;;;;31.33;15.23;;;0.90;99.90;;;;;;20873606;28;20178;-41
2024/03/08 01:53:24;;;;;;;27.63;14.63;;;0.80;99.90;;;;;;20872700;28;20126;-43
2024/03/08 02:03:26;;;;;;;26.05;14.00;;;0.80;99.90;;;;;;20859421;28;20127;-42
2024/03/08 02:13:28;;;;;;;22.63;13.32;;;0.70;99.90;;;;;;20871584;28;20067;-43
2024/03/08 02:23:30;;;;;;;45.67;18.50;;;0.70;99.90;;;;;;20868954;28;21231;-45
2024/03/08 02:33:32;;;;;;;24.30;13.57;;;0.70;99.90;;;;;;20854000;28;20063;-43
2024/03/08 02:43:34;;;;;;;24.55;12.65;;;0.80;99.90;;;;;;20864044;28;20268;-44
2024/03/08 02:53:37;;;;;;;29.80;13.32;;;0.80;99.90;;;;;;20868881;28;21802;-46
2024/03/08 03:03:39;;;;;;;20.33;11.05;;;0.90;99.90;;;;;;20862081;28;20264;-43
2024/03/08 03:13:42;;;;;;;17.75;10.00;;;0.90;99.90;;;;;;20867273;28;20060;-44
2024/03/08 03:23:44;;;;;;;19.25;10.40;;;0.80;99.90;;;;;;20870056;28;20820;-43
2024/03/08 03:33:46;;;;;;;18.88;9.73;;;0.80;99.90;;;;;;20848324;28;20096;-43
2024/03/08 03:43:49;;;;;;;13.40;8.20;;;0.80;99.90;;;;;;20866540;28;20078;-43
2024/03/08 03:53:54;;;;;;;19.80;8.98;;;0.90;99.90;;;;;;20859778;28;21574;-44
2024/03/08 04:03:55;;;;;;;19.13;9.65;;;0.80;99.90;;;;;;20864538;28;20063;-42
2024/03/08 04:13:57;;;;;;;18.27;9.27;;;0.90;99.90;;;;;;20862390;28;20159;-41
2024/03/08 04:23:59;;;;;;;17.58;9.32;;;0.80;99.90;;;;;;20865365;28;20131;-41
2024/03/08 04:34:01;;;;;;;15.60;8.80;;;0.80;99.90;;;;;;20859160;28;20251;-40
2024/03/08 04:44:06;;;;;;;20.30;9.70;;;0.90;99.90;;;;;;20861682;28;20179;-41
2024/03/08 04:54:07;;;;;;;22.00;10.25;;;0.80;99.90;;;;;;20872917;28;21163;-41
2024/03/08 05:04:09;;;;;;;14.38;7.90;;;0.80;99.90;;;;;;20611969;28;20088;-42
2024/03/08 05:14:18;;;;;;;21.60;10.68;;;0.80;99.90;;;;;;20616740;28;20175;-44
2024/03/08 05:24:19;;;;;;;14.35;7.88;;;0.80;99.90;;;;;;20599253;28;20148;-45
2024/03/08 05:34:21;;;;;;;16.83;8.30;;;0.80;99.90;;;;;;20650108;28;20092;-41
2024/03/08 05:44:23;;;;;;;16.40;8.50;;;0.80;99.90;;;;;;20874749;28;20181;-41
2024/03/08 05:54:27;;;;;;;14.27;8.13;;;0.90;99.90;;;;;;20869207;28;20131;-41
2024/03/08 06:04:29;;;;;;;14.57;7.18;;;0.90;99.90;;;;;;20872908;28;20154;-42
2024/03/08 06:14:30;;;;;;;12.63;7.20;;;0.90;99.90;;;;;;20852354;28;20079;-41
2024/03/08 06:24:32;;;;;;;11.02;6.88;;;1.00;99.90;;;;;;20871566;28;20165;-42
2024/03/08 06:34:37;;;;;;;12.65;7.13;;;1.00;99.90;;;;;;20855118;28;21142;-44
2024/03/08 06:44:45;;;;;;;15.95;8.45;;;1.10;99.90;;;;;;20851545;28;20134;-42
2024/03/08 06:54:47;;;;;;;15.65;8.82;;;1.20;99.90;;;;;;20867106;28;20244;-39
2024/03/08 07:04:50;;;;;;;12.85;7.38;;;1.30;99.90;;;;;;20870957;28;20136;-41
2024/03/08 07:14:52;;;;;;;10.85;6.15;;;1.60;99.90;;;;;;20864676;28;20166;-42
2024/03/08 07:25:19;;;;;;;11.65;6.07;;;2.40;99.90;;;;;;20850262;28;20540;-42
2024/03/08 07:35:21;;;;;;;9.40;5.35;;;2.80;99.90;;;;;;20861110;28;20169;-44
2024/03/08 07:45:23;;;;;;;7.40;5.03;;;3.20;99.90;;;;;;20629339;28;21932;-41
2024/03/08 07:55:24;;;;;;;8.77;4.80;;;3.80;99.90;;;;;;20640236;28;20191;-42
2024/03/08 08:05:26;;;;;;;8.05;4.65;;;4.40;99.90;;;;;;20618225;28;20132;-42
2024/03/08 08:15:29;;;;;;;7.10;5.05;;;4.30;99.90;;;;;;20813930;28;20139;-42
2024/03/08 08:25:31;;;;;;;7.32;4.57;;;3.90;99.90;;;;;;20868964;28;20063;-42
2024/03/08 08:35:32;;;;;;;7.93;4.97;;;3.90;99.90;;;;;;20880409;28;20540;-42
2024/03/08 08:45:34;;;;;;;7.15;4.82;;;3.80;99.90;;;;;;20877568;28;20136;-42
2024/03/08 08:55:36;;;;;;;9.20;5.38;;;3.80;99.90;;;;;;20879849;28;20164;-41
2024/03/08 09:05:42;;;;;;;9.73;5.07;;;4.00;99.90;;;;;;20881516;28;20152;-42
2024/03/08 09:15:45;;;;;;;8.18;5.38;;;4.50;99.90;;;;;;20880257;28;20122;-42
2024/03/08 09:25:46;;;;;;;6.80;4.85;;;4.70;99.90;;;;;;20875918;28;20126;-43
2024/03/08 09:35:48;;;;;;;8.43;4.95;;;6.20;99.90;;;;;;20872505;28;20127;-42
2024/03/08 09:45:51;;;;;;;7.63;5.10;;;6.80;99.90;;;;;;20851075;28;20244;-43
2024/03/08 09:55:53;;;;;;;7.47;5.70;;;6.50;99.90;;;;;;20871433;28;20178;-42
2024/03/08 10:06:03;;;;;;;11.02;6.60;;;5.40;99.90;;;;;;20873095;28;20130;-41
2024/03/08 10:16:05;;;;;;;9.27;5.97;;;4.40;99.90;;;;;;20721802;28;20129;-43
2024/03/08 10:26:14;;;;;;;10.07;6.53;;;4.10;99.90;;;;;;20700657;28;20803;-41
2024/03/08 10:36:16;;;;;;;10.75;6.70;;;3.80;99.90;;;;;;20595282;28;20161;-42
2024/03/08 10:46:45;;;;;;;12.50;7.50;;;3.40;99.90;;;;;;20594023;28;20175;-42
2024/03/08 10:56:50;;;;;;;10.15;6.70;;;2.90;99.90;;;;;;20612940;28;20723;-43
2024/03/08 11:06:53;;;;;;;11.35;7.45;;;2.70;99.90;;;;;;20821765;28;20174;-42
2024/03/08 11:16:54;;;;;;;11.40;7.47;;;2.90;99.90;;;;;;20869004;28;20697;-41
2024/03/08 11:26:59;;;;;;;20.63;8.52;;;3.00;99.90;;;;;;20868741;28;20570;-42
2024/03/08 11:37:05;;;;;;;29.95;9.25;;;2.80;99.90;;;;;;20863698;28;20066;-42
2024/03/08 11:47:10;;;;;;;147.15;14.18;;;2.60;99.90;;;;;;20868946;28;20125;-41
2024/03/08 11:57:15;;;;;;;10.27;7.15;;;2.40;99.90;;;;;;20849827;28;20148;-41
2024/03/08 12:07:18;;;;;;;13.68;5.80;;;2.30;99.90;;;;;;20885502;28;21322;-41
2024/03/08 12:17:21;;;;;;;57.60;8.88;;;2.20;99.90;;;;;;20881246;28;20120;-43
2024/03/08 12:27:22;;;;;;;5.38;3.90;;;2.00;99.90;;;;;;20886284;28;20105;-41
2024/03/08 12:37:25;;;;;;;75.18;9.85;;;1.90;99.90;;;;;;20877088;28;20165;-43
2024/03/08 12:47:29;;;;;;;7.47;5.30;;;2.00;99.90;;;;;;20882477;28;21823;-41
2024/03/08 12:57:32;;;;;;;6.72;4.95;;;2.00;99.90;;;;;;20881417;28;20151;-41
2024/03/08 13:07:34;;;;;;;537.40;27.73;;;1.90;99.90;;;;;;20881823;28;21143;-42
2024/03/08 13:17:35;;;;;;;327.42;19.33;;;2.00;99.90;;;;;;20878263;28;20122;-42
2024/03/08 13:27:37;;;;;;;43.80;7.75;;;2.00;99.90;;;;;;20878677;28;20209;-42
2024/03/08 13:37:40;;;;;;;6.18;4.75;;;2.00;99.90;;;;;;20860046;28;20071;-42
2024/03/08 13:47:43;;;;;;;9.80;6.10;;;1.90;99.90;;;;;;20858873;28;20162;-47
2024/03/08 13:57:45;;;;;;;9.80;5.05;;;2.10;99.90;;;;;;20611847;28;20171;-42
2024/03/08 14:07:48;;;;;;;6.57;4.75;;;2.10;99.90;;;;;;20396951;28;20200;-41
2024/03/08 14:17:55;;;;;;;180.73;12.27;;;2.10;99.90;;;;;;20412388;28;20225;-41
2024/03/08 14:28:02;;;;;;;132.32;11.30;;;2.10;99.90;;;;;;20615658;28;20143;-45
2024/03/08 14:38:04;;;;;;;127.57;9.82;;;2.10;99.90;;;;;;20812751;28;20209;-43
2024/03/08 14:48:06;;;;;;;7.03;5.43;;;1.90;99.90;;;;;;20871754;28;20167;-41
2024/03/08 14:58:09;;;;;;;98.75;9.38;;;1.90;99.90;;;;;;20872826;28;20071;-45
2024/03/08 15:08:19;;;;;;;10.07;6.05;;;1.80;99.90;;;;;;20869596;28;20083;-42
2024/03/08 15:18:46;;;;;;;7.20;5.57;;;1.90;99.90;;;;;;20870984;28;20067;-48
2024/03/08 15:28:51;;;;;;;16.95;7.35;;;2.00;99.90;;;;;;20847689;28;20241;-46
2024/03/08 15:38:53;;;;;;;7.47;6.15;;;2.10;99.90;;;;;;20866376;28;21119;-44
2024/03/08 15:48:54;;;;;;;49.75;7.82;;;2.00;99.90;;;;;;20866660;28;20137;-42
2024/03/08 15:58:56;;;;;;;9.77;5.53;;;2.00;99.90;;;;;;20865111;28;20079;-42
2024/03/08 16:08:59;;;;;;;10.30;6.90;;;1.90;99.90;;;;;;20869592;28;21047;-44
2024/03/08 16:19:02;;;;;;;15.23;8.90;;;1.90;99.90;;;;;;20868680;28;20170;-44
2024/03/08 16:29:03;;;;;;;105.80;12.93;;;1.90;99.90;;;;;;20867299;28;20154;-41
2024/03/08 16:39:06;;;;;;;11.80;8.25;;;1.90;99.90;;;;;;20866363;28;21207;-42
2024/03/08 16:49:08;;;;;;;12.30;8.43;;;1.90;99.90;;;;;;20876266;28;20502;-41
2024/03/08 16:59:12;;;;;;;11.30;7.93;;;1.90;99.90;;;;;;20875666;28;20134;-42
2024/03/08 17:09:14;;;;;;;10.77;8.02;;;1.80;99.90;;;;;;20879326;28;20126;-43
2024/03/08 17:19:17;;;;;;;13.25;8.77;;;1.80;99.90;;;;;;20874953;28;20170;-43
2024/03/08 17:29:22;;;;;;;13.15;8.82;;;1.90;99.90;;;;;;20615466;28;20090;-42
2024/03/08 17:39:29;;;;;;;14.82;9.48;;;1.80;99.90;;;;;;20614197;28;21176;-42
2024/03/08 17:49:31;;;;;;;13.13;8.50;;;1.70;99.90;;;;;;20611883;28;20266;-42
2024/03/08 17:59:33;;;;;;;15.05;9.02;;;1.70;99.90;;;;;;20638707;28;21828;-42
2024/03/08 18:09:36;;;;;;;13.35;8.63;;;1.70;99.90;;;;;;20877572;28;20122;-42
2024/03/08 18:19:38;;;;;;;20.92;10.98;;;1.70;99.90;;;;;;20871680;28;20165;-42
2024/03/08 18:29:40;;;;;;;16.33;9.85;;;1.80;99.90;;;;;;20849715;28;20122;-42
2024/03/08 18:39:42;;;;;;;24.08;11.25;;;1.70;99.90;;;;;;20869275;28;20802;-44
2024/03/08 18:49:47;;;;;;;19.00;9.80;;;1.70;99.90;;;;;;20869665;28;20209;-45
2024/03/08 18:59:50;;;;;;;22.50;12.23;;;1.70;99.90;;;;;;20850577;28;20288;-43
2024/03/08 19:09:51;;;;;;;18.90;10.90;;;1.70;99.90;;;;;;20869863;28;20134;-42
2024/03/08 19:19:53;;;;;;;22.40;12.25;;;1.60;99.90;;;;;;20872550;28;20114;-42
2024/03/08 19:29:56;;;;;;;18.17;10.07;;;1.60;99.90;;;;;;20868919;28;20191;-42
2024/03/08 19:39:58;;;;;;;18.08;10.57;;;1.60;99.90;;;;;;20868997;28;20104;-43
2024/03/08 19:49:59;;;;;;;37.63;18.65;;;1.50;99.90;;;;;;20848706;28;20162;-56
2024/03/08 20:00:01;;;;;;;16.65;8.98;;;1.50;99.90;;;;;;20864847;28;20166;-42
2024/03/08 20:10:13;;;;;;;17.02;10.75;;;1.40;99.90;;;;;;20865831;28;20122;-42
2024/03/08 20:20:15;;;;;;;22.75;10.93;;;1.40;99.90;;;;;;20871157;28;20182;-42
2024/03/08 20:30:21;;;;;;;12.77;7.18;;;1.30;99.90;;;;;;20883211;28;20126;-42
2024/03/08 20:40:38;;;;;;;21.60;13.02;;;1.30;99.90;;;;;;20883015;28;21123;-43
2024/03/08 20:50:41;;;;;;;14.45;8.25;;;1.10;99.90;;;;;;20880267;28;20139;-43
2024/03/08 21:00:53;;;;;;;15.05;7.80;;;1.00;99.90;;;;;;20860601;28;20510;-42
2024/03/08 21:10:55;;;;;;;12.30;7.72;;;0.90;99.90;;;;;;20879804;28;20776;-44
2024/03/08 21:20:57;;;;;;;10.15;5.97;;;0.80;99.90;;;;;;20853023;28;20172;-44
2024/03/08 21:31:00;;;;;;;12.18;6.75;;;0.80;99.90;;;;;;20875580;28;21142;-43
2024/03/08 21:41:04;;;;;;;8.73;5.60;;;0.80;99.90;;;;;;20873321;28;20248;-44
2024/03/08 21:51:06;;;;;;;11.88;6.00;;;0.80;99.90;;;;;;20873680;28;20167;-46
2024/03/08 22:01:09;;;;;;;17.75;6.35;;;0.80;99.90;;;;;;20875108;28;21154;-47
2024/03/08 22:11:12;;;;;;;10.18;5.03;;;0.80;99.90;;;;;;20871748;28;21004;-43
2024/03/08 22:21:14;;;;;;;5.85;2.63;;;0.80;99.90;;;;;;20850989;28;20059;-44
2024/03/08 22:31:16;;;;;;;7.50;3.20;;;0.80;99.90;;;;;;20874783;28;20280;-42
2024/03/08 22:41:18;;;;;;;3.30;1.85;;;0.80;99.90;;;;;;20869641;28;20082;-43
2024/03/08 22:51:25;;;;;;;4.50;2.70;;;0.80;99.90;;;;;;20869697;28;21780;-46
2024/03/08 23:01:32;;;;;;;3.15;2.08;;;0.80;99.90;;;;;;20872494;28;20059;-44
2024/03/08 23:11:34;;;;;;;2.35;1.23;;;0.70;99.90;;;;;;20871243;28;20216;-47
2024/03/08 23:21:36;;;;;;;2.10;0.95;;;0.80;99.90;;;;;;20871476;28;20239;-46
2024/03/08 23:31:39;;;;;;;1.73;0.95;;;0.80;99.90;;;;;;20866236;28;20483;-47
2024/03/08 23:41:41;;;;;;;1.30;0.70;;;0.80;99.90;;;;;;20867279;28;20182;-45
2024/03/08 23:51:43;;;;;;;1.65;0.75;;;0.80;99.90;;;;;;20866505;28;20191;-44
